Time;durP1;ratioP1;P1;durP2;ratioP2;P2;SDS_P1;SDS_P2;PMS_P1;PMS_P2;Temp;Humidity;BMP_temperature;BMP_pressure;BME280_temperature;BME280_humidity;BME280_pressure;Samples;Min_cycle;Max_cycle;Signal;HPM_P1;HPM_P2
2022/08/06 00:02:02;;;;;;;0.90;0.90;;;27.20;45.50;;;-147.20;100.00;58430.41;5115299;28;20044;-10
2022/08/06 00:04:28;;;;;;;1.63;1.05;;;27.20;45.50;;;-147.20;100.00;58430.41;5115153;28;20070;-9
2022/08/06 00:06:56;;;;;;;0.90;0.90;;;27.20;45.50;;;-147.20;100.00;58430.41;5096762;28;20488;-10
2022/08/06 00:09:22;;;;;;;0.85;0.80;;;27.10;45.50;;;-147.20;100.00;58430.41;5115114;28;20039;-9
2022/08/06 00:11:48;;;;;;;1.13;1.00;;;27.20;45.50;;;-147.20;100.00;58430.41;5096826;28;20075;-9
2022/08/06 00:14:14;;;;;;;1.00;0.90;;;27.20;45.50;;;-147.20;100.00;58430.41;5114932;28;20131;-10
2022/08/06 00:16:40;;;;;;;1.08;0.90;;;27.20;45.50;;;-147.20;100.00;58430.41;5114911;28;20062;-9
2022/08/06 00:19:06;;;;;;;1.55;1.38;;;27.10;45.50;;;-147.20;100.00;58430.41;5114861;28;20489;-9
2022/08/06 00:21:32;;;;;;;1.00;1.00;;;27.20;45.50;;;-147.20;100.00;58430.41;5115278;28;20072;-9
2022/08/06 00:23:57;;;;;;;1.05;0.95;;;27.10;45.40;;;-147.20;100.00;58430.41;5115144;28;20101;-9
2022/08/06 00:26:24;;;;;;;1.08;0.90;;;27.10;45.50;;;-147.20;100.00;58430.41;5114795;28;20389;-9
2022/08/06 00:28:50;;;;;;;0.98;0.95;;;27.10;45.40;;;-147.20;100.00;58430.41;5115095;28;20408;-10
2022/08/06 00:31:16;;;;;;;1.45;1.10;;;27.10;45.40;;;-147.20;100.00;58430.41;5114840;28;20058;-9
2022/08/06 00:33:42;;;;;;;1.05;0.95;;;27.10;45.40;;;-147.20;100.00;58430.41;5114298;28;20047;-10
2022/08/06 00:36:08;;;;;;;0.80;0.80;;;27.10;45.40;;;-147.20;100.00;58430.41;5114265;28;20044;-9
2022/08/06 00:38:34;;;;;;;1.30;0.90;;;27.10;45.40;;;-147.20;100.00;58430.41;5114592;28;20047;-9
2022/08/06 00:41:02;;;;;;;1.42;1.00;;;27.10;45.90;;;-147.20;100.00;58430.41;5094458;28;20044;-9
2022/08/06 00:43:28;;;;;;;2.13;1.10;;;27.10;45.40;;;-147.20;100.00;58430.41;5114581;28;20050;-10
2022/08/06 00:45:53;;;;;;;1.10;1.00;;;27.10;45.40;;;-147.20;100.00;58430.41;5096349;28;20043;-9
2022/08/06 00:48:19;;;;;;;1.33;1.00;;;27.10;45.40;;;-147.20;100.00;58430.41;5114549;28;20437;-10
2022/08/06 00:50:45;;;;;;;1.23;1.13;;;27.10;45.40;;;-147.20;100.00;58430.41;5114485;28;20120;-10
2022/08/06 00:53:11;;;;;;;1.10;1.00;;;27.10;45.40;;;-147.20;100.00;58430.41;5114918;28;20071;-9
2022/08/06 00:55:37;;;;;;;1.45;1.25;;;27.10;45.40;;;-147.20;100.00;58430.41;5114505;28;20131;-9
2022/08/06 00:58:07;;;;;;;1.10;1.00;;;27.10;45.40;;;-147.20;100.00;58430.41;5114298;28;20382;-9
2022/08/06 01:00:34;;;;;;;1.65;1.10;;;27.10;45.90;;;-147.20;100.00;58430.41;5114444;28;20096;-10
2022/08/06 01:03:00;;;;;;;0.98;0.90;;;27.10;45.30;;;-147.20;100.00;58430.41;5114211;28;20047;-10
2022/08/06 01:05:25;;;;;;;1.30;0.93;;;27.10;45.30;;;-147.20;100.00;58430.41;5114262;28;20070;-10
2022/08/06 01:07:51;;;;;;;1.42;1.30;;;27.10;45.30;;;-147.20;100.00;58430.41;5114177;28;20052;-9
2022/08/06 01:10:17;;;;;;;1.33;1.00;;;27.10;45.30;;;-147.20;100.00;58430.41;5114097;28;20515;-10
2022/08/06 01:12:43;;;;;;;1.27;0.90;;;27.10;45.30;;;-147.20;100.00;58430.41;5114405;28;20055;-10
2022/08/06 01:15:10;;;;;;;1.77;1.02;;;27.10;45.20;;;-147.20;100.00;58430.41;5114114;28;20051;-9
2022/08/06 01:17:55;;;;;;;1.35;1.23;;;27.10;45.20;;;-147.20;100.00;58430.41;5113913;28;20043;-10
2022/08/06 01:20:39;;;;;;;1.23;1.00;;;27.10;45.20;;;-147.20;100.00;58430.41;5095749;28;20079;-10
2022/08/06 01:23:29;;;;;;;2.00;1.00;;;27.10;45.20;;;-147.20;100.00;58430.41;5095836;28;20079;-10
2022/08/06 01:26:35;;;;;;;1.40;1.00;;;27.10;45.20;;;-147.20;100.00;58430.41;5113897;28;20126;-10
2022/08/06 01:29:11;;;;;;;1.20;1.10;;;27.10;45.20;;;-147.20;100.00;58430.41;5094930;28;20084;-10
2022/08/06 01:32:12;;;;;;;1.52;1.25;;;27.10;45.30;;;-147.20;100.00;58430.41;5094028;28;20052;-10
2022/08/06 01:35:05;;;;;;;2.40;1.13;;;27.00;45.20;;;-147.20;100.00;58430.41;5102661;28;20051;-9
2022/08/06 01:37:47;;;;;;;1.00;0.90;;;27.10;45.30;;;-147.20;100.00;58430.41;5095464;28;20101;-9
2022/08/06 01:40:18;;;;;;;3.30;1.25;;;27.10;45.20;;;-147.20;100.00;58430.41;5093398;28;20043;-9
2022/08/06 01:42:45;;;;;;;1.15;0.95;;;27.10;45.20;;;-147.20;100.00;58430.41;5113989;28;20071;-10
2022/08/06 01:45:15;;;;;;;1.80;1.20;;;27.10;45.20;;;-147.20;100.00;58430.41;5095314;28;20531;-9
2022/08/06 01:47:47;;;;;;;1.98;1.10;;;27.00;45.10;;;-147.20;100.00;58430.41;5095665;28;20061;-9
2022/08/06 01:50:15;;;;;;;1.63;1.27;;;27.00;45.10;;;-147.20;100.00;58430.41;5092820;28;20476;-9
2022/08/06 01:52:43;;;;;;;1.73;1.15;;;27.10;45.20;;;-147.20;100.00;58430.41;5095259;28;20048;-10
2022/08/06 01:55:20;;;;;;;1.60;1.10;;;27.10;45.10;;;-147.20;100.00;58430.41;5093719;28;20087;-9
2022/08/06 01:57:53;;;;;;;1.23;1.10;;;27.10;45.10;;;-147.20;100.00;58430.41;5095035;28;20461;-10
2022/08/06 02:00:20;;;;;;;1.33;1.17;;;27.10;45.10;;;-147.20;100.00;58430.41;5094667;28;20053;-9
2022/08/06 02:02:49;;;;;;;2.00;1.20;;;27.10;45.10;;;-147.20;100.00;58430.41;5113256;28;20381;-10
2022/08/06 02:05:19;;;;;;;2.10;1.05;;;27.00;45.10;;;-147.20;100.00;58430.41;5113285;28;20039;-10
2022/08/06 02:07:50;;;;;;;1.15;1.05;;;27.00;45.10;;;-147.20;100.00;58430.41;5093849;28;20079;-9
2022/08/06 02:10:19;;;;;;;1.15;0.90;;;27.00;45.10;;;-147.20;100.00;58430.41;5095296;28;20148;-9
2022/08/06 02:12:47;;;;;;;1.42;1.10;;;27.10;45.10;;;-147.20;100.00;58430.41;5113185;28;20374;-10
2022/08/06 02:15:22;;;;;;;1.20;1.00;;;27.10;45.10;;;-147.20;100.00;58430.41;5095233;28;20048;-9
2022/08/06 02:17:57;;;;;;;1.30;1.10;;;27.10;45.10;;;-147.20;100.00;58430.41;5113019;28;20050;-9
2022/08/06 02:20:35;;;;;;;1.15;0.98;;;27.00;45.00;;;-147.20;100.00;58430.41;5112975;28;20047;-10
2022/08/06 02:23:06;;;;;;;1.17;1.08;;;27.10;45.00;;;-147.20;100.00;58430.41;5094872;28;20097;-10
2022/08/06 02:25:34;;;;;;;2.10;1.10;;;27.00;45.00;;;-147.20;100.00;58430.41;5113649;28;20077;-9
2022/08/06 02:28:02;;;;;;;1.38;1.13;;;27.00;45.00;;;-147.20;100.00;58430.41;5112843;28;20047;-10
2022/08/06 02:30:42;;;;;;;1.02;0.93;;;27.00;45.10;;;-147.20;100.00;58430.41;5095032;28;20062;-10
2022/08/06 02:33:10;;;;;;;1.33;1.20;;;27.00;45.00;;;-147.20;100.00;58430.41;5094786;28;20064;-9
2022/08/06 02:35:52;;;;;;;1.23;1.08;;;27.00;45.00;;;-147.20;100.00;58430.41;5112910;28;20138;-9
2022/08/06 02:38:27;;;;;;;1.00;0.90;;;27.00;45.00;;;-147.20;100.00;58430.41;5112675;28;20379;-10
2022/08/06 02:41:02;;;;;;;1.60;1.05;;;27.00;44.90;;;-147.20;100.00;58430.41;5094906;28;20071;-10
2022/08/06 02:43:37;;;;;;;1.05;0.98;;;27.10;45.00;;;-147.20;100.00;58430.41;5094597;28;20556;-10
2022/08/06 02:46:21;;;;;;;2.03;1.20;;;27.00;45.00;;;-147.20;100.00;58430.41;5094600;28;20052;-9
2022/08/06 02:48:58;;;;;;;1.48;1.00;;;27.00;44.90;;;-147.20;100.00;58430.41;5092802;28;20049;-10
2022/08/06 02:51:51;;;;;;;1.02;0.93;;;27.00;44.90;;;-147.20;100.00;58430.41;5094521;28;20059;-10
2022/08/06 02:54:30;;;;;;;2.45;1.10;;;27.00;44.90;;;-147.20;100.00;58430.41;5112406;28;20519;-10
2022/08/06 02:57:02;;;;;;;1.30;0.90;;;27.00;44.90;;;-147.20;100.00;58430.41;5112528;28;20059;-9
2022/08/06 02:59:35;;;;;;;1.13;1.00;;;27.00;45.00;;;-147.20;100.00;58430.41;5080790;28;20120;-9
2022/08/06 03:02:04;;;;;;;2.10;1.05;;;27.00;44.90;;;-147.20;100.00;58430.41;5098176;28;20047;-9
2022/08/06 03:04:32;;;;;;;1.60;1.02;;;27.00;44.90;;;-147.20;100.00;58430.41;5097957;28;20062;-9
2022/08/06 03:07:07;;;;;;;1.30;1.08;;;27.00;44.90;;;-147.20;100.00;58430.41;5097604;28;20442;-10
2022/08/06 03:09:34;;;;;;;1.55;1.10;;;27.00;44.90;;;-147.20;100.00;58430.41;5094110;28;20508;-10
2022/08/06 03:12:03;;;;;;;1.73;1.13;;;27.00;45.00;;;-147.20;100.00;58430.41;5116287;28;20135;-10
2022/08/06 03:14:32;;;;;;;1.08;0.80;;;27.00;44.90;;;-147.20;100.00;58430.41;5097674;28;20411;-9
2022/08/06 03:16:59;;;;;;;1.73;1.20;;;27.00;45.00;;;-147.20;100.00;58430.41;5097068;28;20469;-10
2022/08/06 03:19:29;;;;;;;1.13;0.98;;;27.00;44.90;;;-147.20;100.00;58430.41;5098009;28;20085;-9
2022/08/06 03:21:58;;;;;;;1.55;1.00;;;27.00;44.90;;;-147.20;100.00;58430.41;5097709;28;20135;-9
2022/08/06 03:24:26;;;;;;;0.93;0.85;;;27.00;44.90;;;-147.20;100.00;58430.41;5097460;28;20039;-9
2022/08/06 03:26:59;;;;;;;1.23;0.93;;;27.00;44.90;;;-147.20;100.00;58430.41;5096057;28;20048;-9
2022/08/06 03:29:26;;;;;;;0.88;0.88;;;27.00;44.90;;;-147.20;100.00;58430.41;5096197;28;20127;-9
2022/08/06 03:31:53;;;;;;;2.00;1.10;;;27.00;44.80;;;-147.20;100.00;58430.41;5115979;28;20044;-9
2022/08/06 03:34:19;;;;;;;1.45;1.10;;;27.00;44.80;;;-147.20;100.00;58430.41;5115383;28;20055;-9
2022/08/06 03:36:45;;;;;;;0.90;0.90;;;27.00;44.80;;;-147.20;100.00;58430.41;5115648;28;20052;-9
2022/08/06 03:39:14;;;;;;;0.80;0.80;;;27.00;44.80;;;-147.20;100.00;58430.41;5115799;28;20047;-9
2022/08/06 03:41:40;;;;;;;0.93;0.70;;;26.90;44.80;;;-147.20;100.00;58430.41;5115556;28;20070;-10
2022/08/06 03:44:07;;;;;;;1.40;1.02;;;26.90;44.80;;;-147.20;100.00;58430.41;5096442;28;20056;-9
2022/08/06 03:46:42;;;;;;;1.30;1.13;;;27.00;44.80;;;-147.20;100.00;58430.41;5095937;28;20040;-9
2022/08/06 03:49:17;;;;;;;1.20;0.95;;;27.00;44.80;;;-147.20;100.00;58430.41;5096144;28;20059;-10
2022/08/06 03:51:45;;;;;;;1.20;1.00;;;27.00;44.80;;;-147.20;100.00;58430.41;5115721;28;20063;-9
2022/08/06 03:54:14;;;;;;;1.10;0.82;;;27.00;44.80;;;-147.20;100.00;58430.41;5096673;28;20052;-9
2022/08/06 03:56:43;;;;;;;1.13;1.00;;;27.00;44.80;;;-147.20;100.00;58430.41;5096191;28;20040;-10
2022/08/06 03:59:13;;;;;;;0.88;0.80;;;26.90;45.30;;;-147.20;100.00;58430.41;5095786;28;20105;-9
2022/08/06 04:01:42;;;;;;;1.52;1.10;;;27.00;44.80;;;-147.20;100.00;58430.41;5097032;28;20485;-9
2022/08/06 04:04:09;;;;;;;0.68;0.68;;;27.00;44.70;;;-147.20;100.00;58430.41;5095375;28;20059;-9
2022/08/06 04:06:36;;;;;;;1.75;1.00;;;27.00;44.70;;;-147.20;100.00;58430.41;5115001;28;20067;-10
2022/08/06 04:09:04;;;;;;;1.50;1.00;;;27.10;44.70;;;-147.20;100.00;58430.41;5113759;28;20089;-9
2022/08/06 04:11:32;;;;;;;1.23;1.10;;;27.10;44.60;;;-147.20;100.00;58430.41;5115067;28;20044;-9
2022/08/06 04:13:59;;;;;;;1.17;0.80;;;27.10;44.60;;;-147.20;100.00;58430.41;5095055;28;20052;-9
2022/08/06 04:16:26;;;;;;;1.05;0.90;;;27.20;44.60;;;-147.20;100.00;58430.41;5096846;28;20044;-10
2022/08/06 04:18:55;;;;;;;1.17;0.93;;;27.20;44.50;;;-147.20;100.00;58430.41;5114844;28;20067;-10
2022/08/06 04:21:24;;;;;;;0.73;0.73;;;27.20;44.40;;;-147.20;100.00;58430.41;5097051;28;20062;-10
2022/08/06 04:23:51;;;;;;;0.80;0.80;;;27.20;44.40;;;-147.20;100.00;58430.41;5096683;28;20054;-10
2022/08/06 04:26:22;;;;;;;1.00;0.80;;;27.30;44.40;;;-147.20;100.00;58430.41;5114950;28;20084;-9
2022/08/06 04:28:52;;;;;;;1.00;0.93;;;27.30;44.40;;;-147.20;100.00;58430.41;5096839;28;20044;-9
2022/08/06 04:31:20;;;;;;;1.67;1.05;;;27.30;44.30;;;-147.20;100.00;58430.41;5114828;28;20052;-10
2022/08/06 04:33:48;;;;;;;1.23;0.90;;;27.30;44.30;;;-147.20;100.00;58430.41;5096633;28;20044;-10
2022/08/06 04:36:15;;;;;;;1.20;0.93;;;27.40;44.30;;;-147.20;100.00;58430.41;5114839;28;20154;-10
2022/08/06 04:38:41;;;;;;;0.95;0.80;;;27.40;44.20;;;-147.20;100.00;58430.41;5114514;28;20113;-9
2022/08/06 04:41:07;;;;;;;1.17;1.00;;;27.40;44.20;;;-147.20;100.00;58430.41;5114578;28;20072;-10
2022/08/06 04:43:34;;;;;;;1.17;0.80;;;27.40;44.10;;;-147.20;100.00;58430.41;5114925;28;20476;-10
2022/08/06 04:46:01;;;;;;;1.42;0.90;;;27.40;44.10;;;-147.20;100.00;58430.41;5114454;28;20039;-9
2022/08/06 04:48:28;;;;;;;1.05;0.85;;;27.40;44.00;;;-147.20;100.00;58430.41;5114382;28;20052;-10
2022/08/06 04:50:54;;;;;;;0.88;0.70;;;27.50;44.00;;;-147.20;100.00;58430.41;5096561;28;20100;-10
2022/08/06 04:53:21;;;;;;;0.77;0.77;;;27.50;44.00;;;-147.20;100.00;58430.41;5096164;28;20047;-9
2022/08/06 04:55:47;;;;;;;0.88;0.77;;;27.60;44.00;;;-147.20;100.00;58430.41;5114486;28;20062;-9
2022/08/06 04:58:16;;;;;;;1.02;0.77;;;27.60;43.80;;;-147.20;100.00;58430.41;5114050;28;20048;-10
2022/08/06 05:00:47;;;;;;;2.67;1.00;;;27.70;43.70;;;-147.20;100.00;58430.41;5114336;28;20055;-10
2022/08/06 05:03:14;;;;;;;1.52;0.80;;;27.80;43.80;;;-147.20;100.00;58430.41;5114725;28;20091;-9
2022/08/06 05:05:52;;;;;;;1.50;0.88;;;27.80;43.60;;;-147.20;100.00;58430.41;5114205;28;20142;-10
2022/08/06 05:08:20;;;;;;;0.80;0.80;;;27.80;43.60;;;-147.20;100.00;58430.41;5114387;28;20401;-10
2022/08/06 05:11:40;;;;;;;1.33;0.75;;;27.80;43.50;;;-147.20;100.00;58430.41;5094105;28;20107;-9
2022/08/06 05:14:13;;;;;;;0.82;0.73;;;27.90;43.50;;;-147.20;100.00;58430.41;5031387;28;20060;-10
2022/08/06 05:16:44;;;;;;;0.88;0.80;;;27.90;43.40;;;-147.20;100.00;58430.41;5083561;28;20066;-9
2022/08/06 05:19:22;;;;;;;0.95;0.85;;;28.00;43.40;;;-147.20;100.00;58430.41;5094402;28;20107;-10
2022/08/06 05:21:49;;;;;;;0.73;0.73;;;28.00;43.40;;;-147.20;100.00;58430.41;5078693;28;20063;-9
2022/08/06 05:24:15;;;;;;;0.55;0.55;;;28.00;43.30;;;-147.20;100.00;58430.41;5094740;28;20131;-10
2022/08/06 05:26:41;;;;;;;1.50;0.80;;;28.10;43.30;;;-147.20;100.00;58430.41;5113561;28;20048;-10
2022/08/06 05:29:07;;;;;;;1.30;0.90;;;28.10;43.20;;;-147.20;100.00;58430.41;5113484;28;20489;-10
2022/08/06 05:31:36;;;;;;;0.70;0.70;;;28.20;43.10;;;-147.20;100.00;58430.41;5095574;28;20058;-10
2022/08/06 05:34:09;;;;;;;1.13;0.95;;;28.20;43.60;;;-147.20;100.00;58430.41;5113509;28;20051;-9
2022/08/06 05:36:35;;;;;;;0.75;0.75;;;28.30;43.00;;;-147.20;100.00;58430.41;5113770;28;20126;-10
2022/08/06 05:39:01;;;;;;;0.70;0.70;;;28.30;42.90;;;-147.20;100.00;58430.41;5113146;28;20047;-10
2022/08/06 05:41:30;;;;;;;0.75;0.70;;;28.40;42.90;;;-147.20;100.00;58430.41;5113672;28;20626;-10
2022/08/06 05:43:58;;;;;;;1.00;0.82;;;28.50;42.80;;;-147.20;100.00;58430.41;5113704;28;20043;-10
2022/08/06 05:46:28;;;;;;;1.05;0.82;;;28.60;42.70;;;-147.20;100.00;58430.41;5113434;28;20062;-10
2022/08/06 05:49:05;;;;;;;0.77;0.70;;;28.60;42.60;;;-147.20;100.00;58430.41;5094083;28;20484;-9
2022/08/06 05:51:59;;;;;;;0.85;0.70;;;28.60;42.50;;;-147.20;100.00;58430.41;5095247;28;20043;-10
2022/08/06 05:54:46;;;;;;;0.82;0.80;;;28.60;42.50;;;-147.20;100.00;58430.41;5096338;28;20045;-10
2022/08/06 05:57:24;;;;;;;1.17;1.00;;;28.50;42.70;;;-147.20;100.00;58430.41;5113306;28;20060;-10
2022/08/06 05:59:58;;;;;;;1.00;0.70;;;28.40;42.70;;;-147.20;100.00;58430.41;5095276;28;20047;-9
2022/08/06 06:02:26;;;;;;;0.82;0.82;;;28.40;42.90;;;-147.20;100.00;58430.41;5113352;28;20047;-9
2022/08/06 06:04:53;;;;;;;0.88;0.70;;;28.30;42.80;;;-147.20;100.00;58430.41;5113420;28;20130;-9
2022/08/06 06:07:20;;;;;;;0.70;0.70;;;28.40;42.90;;;-147.20;100.00;58430.41;5113179;28;20077;-10
2022/08/06 06:09:46;;;;;;;0.65;0.65;;;28.30;42.80;;;-147.20;100.00;58430.41;5095325;28;20047;-9
2022/08/06 06:12:12;;;;;;;0.85;0.70;;;28.30;42.90;;;-147.20;100.00;58430.41;5113261;28;20138;-10
2022/08/06 06:14:42;;;;;;;0.63;0.60;;;28.30;43.00;;;-147.20;100.00;58430.41;5113266;28;20043;-9
2022/08/06 06:17:37;;;;;;;0.80;0.80;;;28.30;43.00;;;-147.20;100.00;58430.41;5113349;28;20080;-10
2022/08/06 06:20:20;;;;;;;0.73;0.73;;;28.20;42.90;;;-147.20;100.00;58430.41;5094686;28;20289;-10
2022/08/06 06:23:12;;;;;;;1.08;0.80;;;28.20;43.00;;;-147.20;100.00;58430.41;5094919;28;20089;-10
2022/08/06 06:25:54;;;;;;;0.80;0.80;;;28.20;43.00;;;-147.20;100.00;58430.41;5095062;28;20093;-9
2022/08/06 06:29:04;;;;;;;1.02;0.60;;;28.30;43.00;;;-147.20;100.00;58430.41;5094561;28;20453;-10
2022/08/06 06:31:47;;;;;;;0.82;0.80;;;28.40;42.80;;;-147.20;100.00;58430.41;5093433;28;20058;-10
2022/08/06 06:34:49;;;;;;;0.93;0.80;;;28.50;42.70;;;-147.20;100.00;58430.41;5112478;28;20051;-9
2022/08/06 06:37:26;;;;;;;1.17;0.90;;;28.60;42.50;;;-147.20;100.00;58430.41;5113101;28;20044;-10
2022/08/06 06:40:06;;;;;;;0.80;0.80;;;28.70;42.40;;;-147.20;100.00;58430.41;5094674;28;20056;-10
2022/08/06 06:42:42;;;;;;;0.60;0.60;;;28.70;42.20;;;-147.20;100.00;58430.41;5094729;28;20050;-9
2022/08/06 06:45:16;;;;;;;0.63;0.60;;;28.80;42.10;;;-147.20;100.00;58430.41;5113070;28;20428;-9
2022/08/06 06:47:59;;;;;;;0.80;0.60;;;28.90;42.10;;;-147.20;100.00;58430.41;5112475;28;20040;-10
2022/08/06 06:50:37;;;;;;;0.77;0.77;;;28.90;41.90;;;-147.20;100.00;58430.41;5094651;28;20412;-9
2022/08/06 06:53:05;;;;;;;1.35;0.80;;;29.00;42.40;;;-147.20;100.00;58430.41;5094538;28;20083;-9
2022/08/06 06:55:43;;;;;;;1.25;0.90;;;29.10;41.80;;;-147.20;100.00;58430.41;5112678;28;20048;-10
2022/08/06 06:58:14;;;;;;;0.60;0.60;;;29.10;41.80;;;-147.20;100.00;58430.41;5094041;28;20056;-9
2022/08/06 07:00:42;;;;;;;1.70;0.80;;;29.20;41.60;;;-147.20;100.00;58430.41;5094128;28;20059;-9
2022/08/06 07:03:09;;;;;;;0.90;0.70;;;29.20;41.60;;;-147.20;100.00;58430.41;5094379;28;20063;-9
2022/08/06 07:05:38;;;;;;;1.70;0.80;;;29.30;41.50;;;-147.20;100.00;58430.41;5112476;28;20048;-9
2022/08/06 07:08:05;;;;;;;0.70;0.70;;;29.30;41.40;;;-147.20;100.00;58430.41;5092691;28;20070;-10
2022/08/06 07:10:32;;;;;;;0.77;0.55;;;29.40;41.40;;;-147.20;100.00;58430.41;5112843;28;20083;-9
2022/08/06 07:12:59;;;;;;;0.73;0.70;;;29.40;41.40;;;-147.20;100.00;58430.41;5094224;28;20044;-10
2022/08/06 07:15:26;;;;;;;0.70;0.70;;;29.40;41.20;;;-147.20;100.00;58430.41;5060193;28;20082;-10
2022/08/06 07:17:54;;;;;;;0.63;0.63;;;29.40;41.20;;;-147.20;100.00;58430.41;5092739;28;20052;-10
2022/08/06 07:20:26;;;;;;;0.85;0.63;;;29.50;41.30;;;-147.20;100.00;58430.41;5077208;28;20073;-10
2022/08/06 07:22:55;;;;;;;2.22;0.80;;;29.50;41.30;;;-147.20;100.00;58430.41;5112419;28;20043;-10
2022/08/06 07:25:22;;;;;;;0.80;0.70;;;29.50;41.20;;;-147.20;100.00;58430.41;5094401;28;20052;-10
2022/08/06 07:27:51;;;;;;;2.30;0.80;;;29.50;41.10;;;-147.20;100.00;58430.41;5112096;28;20085;-10
2022/08/06 07:30:20;;;;;;;1.05;0.93;;;29.50;41.10;;;-147.20;100.00;58430.41;5076976;28;20050;-10
2022/08/06 07:32:48;;;;;;;0.95;0.77;;;29.60;41.10;;;-147.20;100.00;58430.41;5112292;28;20046;-9
2022/08/06 07:35:19;;;;;;;0.70;0.70;;;29.60;41.00;;;-147.20;100.00;58430.41;5093881;28;20111;-10
2022/08/06 07:38:09;;;;;;;1.75;1.00;;;29.60;41.00;;;-147.20;100.00;58430.41;5093730;28;20074;-9
2022/08/06 07:40:45;;;;;;;0.60;0.60;;;29.60;41.00;;;-147.20;100.00;58430.41;5093480;28;20039;-12
2022/08/06 07:43:18;;;;;;;0.80;0.60;;;29.40;41.20;;;-147.20;100.00;58430.41;5094462;28;20485;-9
2022/08/06 07:45:46;;;;;;;0.50;0.50;;;29.40;41.30;;;-147.20;100.00;58430.41;5115940;28;20067;-9
2022/08/06 07:48:14;;;;;;;0.88;0.73;;;29.40;41.30;;;-147.20;100.00;58430.41;5096198;28;20059;-9
2022/08/06 07:50:46;;;;;;;1.00;0.70;;;29.40;41.30;;;-147.20;100.00;58430.41;5115387;28;20096;-9
2022/08/06 07:53:13;;;;;;;1.50;0.90;;;29.30;41.40;;;-147.20;100.00;58430.41;5097742;28;20059;-10
2022/08/06 07:55:39;;;;;;;1.38;0.80;;;29.20;41.60;;;-147.20;100.00;58430.41;5096141;28;20055;-9
2022/08/06 07:58:06;;;;;;;0.70;0.60;;;29.10;41.60;;;-147.20;100.00;58430.41;5115260;28;20047;-9
2022/08/06 08:00:32;;;;;;;0.68;0.68;;;29.10;41.70;;;-147.20;100.00;58430.41;5096996;28;20412;-10
2022/08/06 08:08:30;;;;;;;1.10;0.70;;;29.20;41.60;;;-147.20;100.00;58430.41;5100061;28;20135;-9
2022/08/06 08:10:57;;;;;;;0.82;0.60;;;29.20;41.60;;;-147.20;100.00;58430.41;5115029;28;20495;-9
2022/08/06 08:13:24;;;;;;;0.70;0.70;;;29.20;41.50;;;-147.20;100.00;58430.41;5097229;28;20112;-9
2022/08/06 08:15:50;;;;;;;0.88;0.60;;;29.30;41.50;;;-147.20;100.00;58430.41;5115073;28;20043;-9
2022/08/06 08:18:17;;;;;;;0.63;0.60;;;29.30;41.40;;;-147.20;100.00;58430.41;5096494;28;20067;-10
2022/08/06 08:20:44;;;;;;;0.60;0.60;;;29.40;41.40;;;-147.20;100.00;58430.41;5114713;28;20138;-9
2022/08/06 08:23:12;;;;;;;0.60;0.60;;;29.40;41.30;;;-147.20;100.00;58430.41;5114931;28;20044;-9
2022/08/06 08:25:39;;;;;;;0.55;0.55;;;29.40;41.30;;;-147.20;100.00;58430.41;5114846;28;20047;-9
2022/08/06 08:28:07;;;;;;;0.70;0.70;;;29.40;41.30;;;-147.20;100.00;58430.41;5114877;28;20071;-9
2022/08/06 08:30:33;;;;;;;1.05;0.80;;;29.40;41.30;;;-147.20;100.00;58430.41;5115205;28;20063;-10
2022/08/06 08:32:59;;;;;;;0.60;0.60;;;29.30;41.30;;;-147.20;100.00;58430.41;5114979;28;20040;-9
2022/08/06 08:35:24;;;;;;;0.55;0.55;;;29.30;41.30;;;-147.20;100.00;58430.41;5096508;28;20167;-9
2022/08/06 08:37:50;;;;;;;0.98;0.70;;;29.30;41.40;;;-147.20;100.00;58430.41;5114653;28;20059;-9
2022/08/06 08:40:16;;;;;;;0.88;0.60;;;29.30;41.60;;;-147.20;100.00;58430.41;5114677;28;20040;-9
2022/08/06 08:42:55;;;;;;;0.70;0.70;;;29.20;41.40;;;-147.20;100.00;58430.41;5114748;28;20070;-9
2022/08/06 08:45:22;;;;;;;0.98;0.82;;;29.20;41.50;;;-147.20;100.00;58430.41;5096051;28;20046;-9
2022/08/06 08:47:53;;;;;;;1.55;0.60;;;29.20;41.50;;;-147.20;100.00;58430.41;5096381;28;20445;-10
2022/08/06 08:50:24;;;;;;;0.70;0.70;;;29.10;41.50;;;-147.20;100.00;58430.41;5114380;28;20036;-10
2022/08/06 08:52:57;;;;;;;0.60;0.60;;;29.10;42.10;;;-147.20;100.00;58430.41;5096439;28;20142;-9
2022/08/06 08:55:25;;;;;;;1.38;0.73;;;29.10;41.60;;;-147.20;100.00;58430.41;5095857;28;20040;-9
2022/08/06 08:57:52;;;;;;;1.52;0.90;;;29.10;41.60;;;-147.20;100.00;58430.41;5114895;28;20052;-9
2022/08/06 09:00:19;;;;;;;0.65;0.65;;;29.00;41.60;;;-147.20;100.00;58430.41;5095285;28;20062;-10
2022/08/06 09:02:45;;;;;;;0.68;0.60;;;29.00;41.70;;;-147.20;100.00;58430.41;5096456;28;20146;-9
2022/08/06 09:05:12;;;;;;;0.95;0.70;;;29.00;41.70;;;-147.20;100.00;58430.41;5096031;28;20092;-9
2022/08/06 09:07:39;;;;;;;0.70;0.70;;;29.00;41.80;;;-147.20;100.00;58430.41;5114579;28;20075;-10
2022/08/06 09:10:08;;;;;;;1.23;0.80;;;29.00;41.80;;;-147.20;100.00;58430.41;5114043;28;20047;-9
2022/08/06 09:12:34;;;;;;;0.60;0.60;;;29.00;41.90;;;-147.20;100.00;58430.41;5095871;28;20051;-9
2022/08/06 09:15:00;;;;;;;1.10;0.70;;;28.90;41.90;;;-147.20;100.00;58430.41;5094624;28;20055;-9
2022/08/06 09:17:29;;;;;;;1.02;0.70;;;28.90;41.90;;;-147.20;100.00;58430.41;5114032;28;20055;-9
2022/08/06 09:19:55;;;;;;;0.50;0.50;;;28.80;41.90;;;-147.20;100.00;58430.41;5079410;28;20430;-9
2022/08/06 09:22:21;;;;;;;0.82;0.70;;;28.80;41.90;;;-147.20;100.00;58430.41;5095793;28;20055;-10
2022/08/06 09:24:47;;;;;;;0.93;0.60;;;28.80;41.90;;;-147.20;100.00;58430.41;5114625;28;20058;-9
2022/08/06 09:27:17;;;;;;;0.70;0.70;;;28.80;42.00;;;-147.20;100.00;58430.41;5095730;28;20063;-9
2022/08/06 09:30:05;;;;;;;0.50;0.50;;;28.80;42.00;;;-147.20;100.00;58430.41;5113936;28;20043;-9
2022/08/06 09:32:43;;;;;;;1.20;0.68;;;28.80;42.10;;;-147.20;100.00;58430.41;5114216;28;20397;-9
2022/08/06 09:35:35;;;;;;;0.70;0.70;;;28.70;42.10;;;-147.20;100.00;58430.41;5113837;28;20051;-9
2022/08/06 09:38:09;;;;;;;0.93;0.75;;;28.70;42.10;;;-147.20;100.00;58430.41;5108884;28;20055;-10
2022/08/06 09:40:35;;;;;;;0.50;0.50;;;28.70;42.10;;;-147.20;100.00;58430.41;5114267;28;20044;-9
2022/08/06 09:43:01;;;;;;;0.65;0.63;;;28.70;42.10;;;-147.20;100.00;58430.41;5113816;28;20039;-9
2022/08/06 09:45:27;;;;;;;0.70;0.70;;;28.70;42.10;;;-147.20;100.00;58430.41;5113691;28;20400;-10
2022/08/06 09:48:06;;;;;;;0.95;0.70;;;28.70;42.10;;;-147.20;100.00;58430.41;5113822;28;20191;-10
2022/08/06 09:50:44;;;;;;;0.80;0.55;;;28.70;42.10;;;-147.20;100.00;58430.41;5113661;28;20040;-9
2022/08/06 09:53:12;;;;;;;0.70;0.70;;;28.70;42.20;;;-147.20;100.00;58430.41;5095403;28;20050;-9
2022/08/06 09:55:38;;;;;;;1.20;0.80;;;28.60;42.10;;;-147.20;100.00;58430.41;5113553;28;20047;-9
2022/08/06 09:58:07;;;;;;;1.05;0.85;;;28.70;42.20;;;-147.20;100.00;58430.41;5093260;28;20055;-9
2022/08/06 10:00:35;;;;;;;0.70;0.70;;;28.60;42.10;;;-147.20;100.00;58430.41;5095221;28;20051;-9
2022/08/06 10:03:04;;;;;;;0.50;0.50;;;28.70;42.10;;;-147.20;100.00;58430.41;5113438;28;20443;-9
2022/08/06 10:05:31;;;;;;;1.15;0.80;;;28.60;42.10;;;-147.20;100.00;58430.41;5113316;28;20104;-10
2022/08/06 10:08:17;;;;;;;0.60;0.60;;;28.60;42.10;;;-147.20;100.00;58430.41;5112022;28;20047;-10
2022/08/06 10:10:47;;;;;;;1.00;0.77;;;28.60;42.10;;;-147.20;100.00;58430.41;5113199;28;20274;-10
2022/08/06 10:13:23;;;;;;;0.70;0.70;;;28.60;42.10;;;-147.20;100.00;58430.41;5113240;28;20059;-10
2022/08/06 10:15:51;;;;;;;1.40;0.68;;;28.60;42.20;;;-147.20;100.00;58430.41;5113628;28;20039;-9
2022/08/06 10:18:48;;;;;;;0.50;0.50;;;28.60;42.20;;;-147.20;100.00;58430.41;5113077;28;20047;-10
2022/08/06 10:21:19;;;;;;;0.63;0.63;;;28.60;42.30;;;-147.20;100.00;58430.41;5105028;28;20051;-9
2022/08/06 10:23:48;;;;;;;0.65;0.60;;;28.60;42.30;;;-147.20;100.00;58430.41;5113688;28;20066;-10
2022/08/06 10:26:22;;;;;;;0.70;0.50;;;28.60;42.20;;;-147.20;100.00;58430.41;5094738;28;20048;-9